sensor_id;sensor_type;location;lat;lon;timestamp;P1;durP1;ratioP1;P2;durP2;ratioP2
12112;SDS011;6120;52.250;8.478;2023-01-24T00:00:15;37.83;;;15.85;;
12112;SDS011;6120;52.250;8.478;2023-01-24T00:02:42;39.17;;;16.40;;
12112;SDS011;6120;52.250;8.478;2023-01-24T00:05:09;40.85;;;16.60;;
12112;SDS011;6120;52.250;8.478;2023-01-24T00:07:36;37.20;;;15.75;;
12112;SDS011;6120;52.250;8.478;2023-01-24T00:10:02;35.65;;;14.90;;
12112;SDS011;6120;52.250;8.478;2023-01-24T00:12:31;35.45;;;15.73;;
12112;SDS011;6120;52.250;8.478;2023-01-24T00:14:58;33.78;;;13.85;;
12112;SDS011;6120;52.250;8.478;2023-01-24T00:17:24;33.47;;;15.07;;
12112;SDS011;6120;52.250;8.478;2023-01-24T00:19:51;32.30;;;13.98;;
12112;SDS011;6120;52.250;8.478;2023-01-24T00:22:18;30.42;;;13.05;;
12112;SDS011;6120;52.250;8.478;2023-01-24T00:24:44;30.67;;;13.90;;
12112;SDS011;6120;52.250;8.478;2023-01-24T00:27:12;33.20;;;14.77;;
12112;SDS011;6120;52.250;8.478;2023-01-24T00:29:38;29.27;;;13.43;;
12112;SDS011;6120;52.250;8.478;2023-01-24T00:32:05;34.08;;;14.18;;
12112;SDS011;6120;52.250;8.478;2023-01-24T00:34:32;29.75;;;14.05;;
12112;SDS011;6120;52.250;8.478;2023-01-24T00:36:58;27.60;;;13.27;;
12112;SDS011;6120;52.250;8.478;2023-01-24T00:39:25;30.02;;;12.18;;
12112;SDS011;6120;52.250;8.478;2023-01-24T00:41:52;33.95;;;14.43;;
12112;SDS011;6120;52.250;8.478;2023-01-24T00:44:18;28.33;;;12.48;;
12112;SDS011;6120;52.250;8.478;2023-01-24T00:46:45;28.65;;;12.13;;
12112;SDS011;6120;52.250;8.478;2023-01-24T00:49:11;29.52;;;12.80;;
12112;SDS011;6120;52.250;8.478;2023-01-24T00:51:38;27.13;;;12.98;;
12112;SDS011;6120;52.250;8.478;2023-01-24T00:54:05;27.92;;;12.73;;
12112;SDS011;6120;52.250;8.478;2023-01-24T00:56:31;25.35;;;11.20;;
12112;SDS011;6120;52.250;8.478;2023-01-24T00:58:58;22.58;;;10.88;;
12112;SDS011;6120;52.250;8.478;2023-01-24T01:01:24;23.15;;;10.73;;
12112;SDS011;6120;52.250;8.478;2023-01-24T01:03:55;22.52;;;10.45;;
12112;SDS011;6120;52.250;8.478;2023-01-24T01:06:22;23.13;;;10.52;;
12112;SDS011;6120;52.250;8.478;2023-01-24T01:08:50;23.77;;;10.47;;
12112;SDS011;6120;52.250;8.478;2023-01-24T01:11:17;20.60;;;9.98;;
12112;SDS011;6120;52.250;8.478;2023-01-24T01:13:44;20.40;;;10.13;;
12112;SDS011;6120;52.250;8.478;2023-01-24T01:16:15;18.23;;;8.98;;
12112;SDS011;6120;52.250;8.478;2023-01-24T01:18:45;21.40;;;10.20;;
12112;SDS011;6120;52.250;8.478;2023-01-24T01:21:13;21.15;;;9.73;;
12112;SDS011;6120;52.250;8.478;2023-01-24T01:23:44;18.50;;;8.60;;
12112;SDS011;6120;52.250;8.478;2023-01-24T01:26:15;22.77;;;9.38;;
12112;SDS011;6120;52.250;8.478;2023-01-24T01:28:43;18.77;;;8.77;;
12112;SDS011;6120;52.250;8.478;2023-01-24T01:31:10;20.55;;;9.43;;
12112;SDS011;6120;52.250;8.478;2023-01-24T01:33:37;18.05;;;8.88;;
12112;SDS011;6120;52.250;8.478;2023-01-24T01:36:03;21.35;;;9.13;;
12112;SDS011;6120;52.250;8.478;2023-01-24T01:38:30;20.60;;;8.57;;
12112;SDS011;6120;52.250;8.478;2023-01-24T01:40:57;19.98;;;9.65;;
12112;SDS011;6120;52.250;8.478;2023-01-24T01:43:26;17.90;;;9.07;;
12112;SDS011;6120;52.250;8.478;2023-01-24T01:48:42;19.13;;;9.15;;
12112;SDS011;6120;52.250;8.478;2023-01-24T01:51:24;22.92;;;9.45;;
12112;SDS011;6120;52.250;8.478;2023-01-24T01:54:00;19.50;;;8.95;;
12112;SDS011;6120;52.250;8.478;2023-01-24T01:56:30;15.75;;;8.10;;
12112;SDS011;6120;52.250;8.478;2023-01-24T01:59:03;18.02;;;8.77;;
12112;SDS011;6120;52.250;8.478;2023-01-24T02:01:32;16.13;;;8.48;;
12112;SDS011;6120;52.250;8.478;2023-01-24T02:04:02;18.93;;;9.10;;
12112;SDS011;6120;52.250;8.478;2023-01-24T02:09:23;19.65;;;9.95;;
12112;SDS011;6120;52.250;8.478;2023-01-24T02:11:53;19.27;;;8.68;;
12112;SDS011;6120;52.250;8.478;2023-01-24T02:14:22;16.40;;;8.98;;
12112;SDS011;6120;52.250;8.478;2023-01-24T02:17:08;18.70;;;9.48;;
12112;SDS011;6120;52.250;8.478;2023-01-24T02:22:13;17.65;;;8.52;;
12112;SDS011;6120;52.250;8.478;2023-01-24T02:24:48;19.58;;;8.80;;
12112;SDS011;6120;52.250;8.478;2023-01-24T02:27:21;20.60;;;8.77;;
12112;SDS011;6120;52.250;8.478;2023-01-24T02:29:48;18.48;;;9.40;;
12112;SDS011;6120;52.250;8.478;2023-01-24T02:32:15;15.93;;;8.43;;
12112;SDS011;6120;52.250;8.478;2023-01-24T02:34:43;16.33;;;8.57;;
12112;SDS011;6120;52.250;8.478;2023-01-24T02:37:11;17.42;;;9.05;;
12112;SDS011;6120;52.250;8.478;2023-01-24T02:42:12;16.90;;;8.90;;
12112;SDS011;6120;52.250;8.478;2023-01-24T02:47:10;15.50;;;8.68;;
12112;SDS011;6120;52.250;8.478;2023-01-24T02:49:37;13.75;;;7.60;;
12112;SDS011;6120;52.250;8.478;2023-01-24T02:52:04;16.77;;;9.35;;
12112;SDS011;6120;52.250;8.478;2023-01-24T02:54:49;13.35;;;8.30;;
12112;SDS011;6120;52.250;8.478;2023-01-24T02:57:15;19.17;;;10.05;;
12112;SDS011;6120;52.250;8.478;2023-01-24T03:00:00;16.27;;;8.43;;
12112;SDS011;6120;52.250;8.478;2023-01-24T03:02:27;15.85;;;8.15;;
12112;SDS011;6120;52.250;8.478;2023-01-24T03:04:53;14.02;;;7.53;;
12112;SDS011;6120;52.250;8.478;2023-01-24T03:07:20;16.08;;;9.30;;
12112;SDS011;6120;52.250;8.478;2023-01-24T03:09:46;15.85;;;8.48;;
12112;SDS011;6120;52.250;8.478;2023-01-24T03:12:13;16.63;;;8.13;;
12112;SDS011;6120;52.250;8.478;2023-01-24T03:14:58;14.63;;;8.00;;
12112;SDS011;6120;52.250;8.478;2023-01-24T03:17:43;14.82;;;8.40;;
12112;SDS011;6120;52.250;8.478;2023-01-24T03:20:29;12.40;;;7.10;;
12112;SDS011;6120;52.250;8.478;2023-01-24T03:23:14;11.32;;;6.95;;
12112;SDS011;6120;52.250;8.478;2023-01-24T03:25:59;14.55;;;7.57;;
12112;SDS011;6120;52.250;8.478;2023-01-24T03:28:44;14.80;;;8.38;;
12112;SDS011;6120;52.250;8.478;2023-01-24T03:31:30;12.90;;;6.90;;
12112;SDS011;6120;52.250;8.478;2023-01-24T03:34:15;15.60;;;7.50;;
12112;SDS011;6120;52.250;8.478;2023-01-24T03:37:11;12.63;;;6.97;;
12112;SDS011;6120;52.250;8.478;2023-01-24T03:39:39;15.23;;;8.23;;
12112;SDS011;6120;52.250;8.478;2023-01-24T03:42:25;14.82;;;7.88;;
12112;SDS011;6120;52.250;8.478;2023-01-24T03:44:52;13.13;;;7.50;;
12112;SDS011;6120;52.250;8.478;2023-01-24T03:47:19;13.13;;;6.82;;
12112;SDS011;6120;52.250;8.478;2023-01-24T03:49:46;11.95;;;6.53;;
12112;SDS011;6120;52.250;8.478;2023-01-24T03:52:31;11.48;;;6.53;;
12112;SDS011;6120;52.250;8.478;2023-01-24T03:54:58;11.85;;;6.63;;
12112;SDS011;6120;52.250;8.478;2023-01-24T03:59:53;11.73;;;6.20;;
12112;SDS011;6120;52.250;8.478;2023-01-24T04:02:20;13.77;;;7.40;;
12112;SDS011;6120;52.250;8.478;2023-01-24T04:04:47;11.73;;;6.45;;
12112;SDS011;6120;52.250;8.478;2023-01-24T04:07:32;12.88;;;6.85;;
12112;SDS011;6120;52.250;8.478;2023-01-24T04:09:59;10.48;;;5.97;;
12112;SDS011;6120;52.250;8.478;2023-01-24T04:12:25;10.77;;;6.85;;
12112;SDS011;6120;52.250;8.478;2023-01-24T04:14:52;10.63;;;5.70;;
12112;SDS011;6120;52.250;8.478;2023-01-24T04:17:19;14.48;;;6.50;;
12112;SDS011;6120;52.250;8.478;2023-01-24T04:19:46;12.48;;;6.25;;
12112;SDS011;6120;52.250;8.478;2023-01-24T04:22:13;10.93;;;5.65;;
12112;SDS011;6120;52.250;8.478;2023-01-24T04:24:42;12.23;;;6.53;;
12112;SDS011;6120;52.250;8.478;2023-01-24T04:27:09;12.03;;;6.33;;
12112;SDS011;6120;52.250;8.478;2023-01-24T04:29:36;11.00;;;6.05;;
12112;SDS011;6120;52.250;8.478;2023-01-24T04:32:03;10.25;;;5.40;;
12112;SDS011;6120;52.250;8.478;2023-01-24T04:34:30;9.65;;;5.53;;
12112;SDS011;6120;52.250;8.478;2023-01-24T04:36:58;11.20;;;5.50;;
12112;SDS011;6120;52.250;8.478;2023-01-24T04:39:24;11.00;;;5.70;;
12112;SDS011;6120;52.250;8.478;2023-01-24T04:41:51;9.60;;;5.10;;
12112;SDS011;6120;52.250;8.478;2023-01-24T04:44:18;9.80;;;5.35;;
12112;SDS011;6120;52.250;8.478;2023-01-24T04:46:44;11.27;;;5.85;;
12112;SDS011;6120;52.250;8.478;2023-01-24T04:49:11;11.85;;;6.25;;
12112;SDS011;6120;52.250;8.478;2023-01-24T04:51:37;8.27;;;4.80;;
12112;SDS011;6120;52.250;8.478;2023-01-24T04:54:08;9.02;;;5.18;;
12112;SDS011;6120;52.250;8.478;2023-01-24T04:56:35;11.48;;;5.97;;
12112;SDS011;6120;52.250;8.478;2023-01-24T04:59:02;8.98;;;5.28;;
12112;SDS011;6120;52.250;8.478;2023-01-24T05:01:29;10.77;;;5.80;;
12112;SDS011;6120;52.250;8.478;2023-01-24T05:03:56;9.13;;;5.57;;
12112;SDS011;6120;52.250;8.478;2023-01-24T05:06:25;10.60;;;5.95;;
12112;SDS011;6120;52.250;8.478;2023-01-24T05:08:52;9.85;;;5.28;;
12112;SDS011;6120;52.250;8.478;2023-01-24T05:11:20;10.77;;;5.10;;
12112;SDS011;6120;52.250;8.478;2023-01-24T05:13:46;9.63;;;4.80;;
12112;SDS011;6120;52.250;8.478;2023-01-24T05:16:13;9.18;;;5.57;;
12112;SDS011;6120;52.250;8.478;2023-01-24T05:18:40;9.52;;;5.22;;
12112;SDS011;6120;52.250;8.478;2023-01-24T05:21:07;7.13;;;4.47;;
12112;SDS011;6120;52.250;8.478;2023-01-24T05:23:38;9.00;;;4.80;;
12112;SDS011;6120;52.250;8.478;2023-01-24T05:26:05;8.75;;;5.28;;
12112;SDS011;6120;52.250;8.478;2023-01-24T05:28:32;9.68;;;5.15;;
12112;SDS011;6120;52.250;8.478;2023-01-24T05:30:59;8.98;;;4.95;;
12112;SDS011;6120;52.250;8.478;2023-01-24T05:33:26;9.48;;;4.88;;
12112;SDS011;6120;52.250;8.478;2023-01-24T05:36:00;9.68;;;4.68;;
12112;SDS011;6120;52.250;8.478;2023-01-24T05:38:27;8.95;;;4.50;;
12112;SDS011;6120;52.250;8.478;2023-01-24T05:40:57;7.47;;;4.22;;
12112;SDS011;6120;52.250;8.478;2023-01-24T05:43:25;9.18;;;5.00;;
12112;SDS011;6120;52.250;8.478;2023-01-24T05:45:56;7.40;;;3.95;;
12112;SDS011;6120;52.250;8.478;2023-01-24T05:48:26;7.57;;;4.03;;
12112;SDS011;6120;52.250;8.478;2023-01-24T05:51:00;7.78;;;4.68;;
12112;SDS011;6120;52.250;8.478;2023-01-24T05:53:28;8.68;;;4.90;;
12112;SDS011;6120;52.250;8.478;2023-01-24T05:55:56;6.88;;;4.43;;
12112;SDS011;6120;52.250;8.478;2023-01-24T05:58:27;8.18;;;4.65;;
12112;SDS011;6120;52.250;8.478;2023-01-24T06:03:21;8.02;;;4.63;;
12112;SDS011;6120;52.250;8.478;2023-01-24T06:05:49;9.18;;;4.95;;
12112;SDS011;6120;52.250;8.478;2023-01-24T06:08:20;6.93;;;3.97;;
12112;SDS011;6120;52.250;8.478;2023-01-24T06:10:47;8.00;;;4.82;;
12112;SDS011;6120;52.250;8.478;2023-01-24T06:13:14;9.82;;;5.30;;
12112;SDS011;6120;52.250;8.478;2023-01-24T06:15:41;7.78;;;4.82;;
12112;SDS011;6120;52.250;8.478;2023-01-24T06:18:10;8.13;;;5.07;;
12112;SDS011;6120;52.250;8.478;2023-01-24T06:20:40;8.82;;;4.97;;
12112;SDS011;6120;52.250;8.478;2023-01-24T06:23:07;7.70;;;4.53;;
12112;SDS011;6120;52.250;8.478;2023-01-24T06:25:37;7.43;;;4.55;;
12112;SDS011;6120;52.250;8.478;2023-01-24T06:28:03;7.22;;;4.32;;
12112;SDS011;6120;52.250;8.478;2023-01-24T06:30:30;8.23;;;4.35;;
12112;SDS011;6120;52.250;8.478;2023-01-24T06:33:01;8.75;;;4.97;;
12112;SDS011;6120;52.250;8.478;2023-01-24T06:38:22;7.95;;;4.47;;
12112;SDS011;6120;52.250;8.478;2023-01-24T06:40:56;9.65;;;4.88;;
12112;SDS011;6120;52.250;8.478;2023-01-24T06:43:23;9.73;;;5.15;;
12112;SDS011;6120;52.250;8.478;2023-01-24T06:45:50;10.00;;;5.35;;
12112;SDS011;6120;52.250;8.478;2023-01-24T06:48:17;10.95;;;6.30;;
12112;SDS011;6120;52.250;8.478;2023-01-24T06:50:44;11.23;;;5.80;;
12112;SDS011;6120;52.250;8.478;2023-01-24T06:53:11;8.88;;;5.00;;
12112;SDS011;6120;52.250;8.478;2023-01-24T06:55:46;8.68;;;5.20;;
12112;SDS011;6120;52.250;8.478;2023-01-24T06:58:13;8.63;;;4.90;;
12112;SDS011;6120;52.250;8.478;2023-01-24T07:00:39;10.43;;;5.35;;
12112;SDS011;6120;52.250;8.478;2023-01-24T07:03:07;8.73;;;4.72;;
12112;SDS011;6120;52.250;8.478;2023-01-24T07:05:34;10.32;;;5.00;;
12112;SDS011;6120;52.250;8.478;2023-01-24T07:08:02;9.38;;;5.28;;
12112;SDS011;6120;52.250;8.478;2023-01-24T07:10:29;10.15;;;5.22;;
12112;SDS011;6120;52.250;8.478;2023-01-24T07:12:56;9.00;;;5.07;;
12112;SDS011;6120;52.250;8.478;2023-01-24T07:15:23;8.40;;;4.82;;
12112;SDS011;6120;52.250;8.478;2023-01-24T07:17:50;8.73;;;4.40;;
12112;SDS011;6120;52.250;8.478;2023-01-24T07:20:17;9.30;;;4.50;;
12112;SDS011;6120;52.250;8.478;2023-01-24T07:22:44;8.35;;;4.75;;
12112;SDS011;6120;52.250;8.478;2023-01-24T07:25:14;9.68;;;4.72;;
12112;SDS011;6120;52.250;8.478;2023-01-24T07:27:42;7.40;;;4.50;;
12112;SDS011;6120;52.250;8.478;2023-01-24T07:30:10;10.98;;;5.50;;
12112;SDS011;6120;52.250;8.478;2023-01-24T07:32:37;8.13;;;4.30;;
12112;SDS011;6120;52.250;8.478;2023-01-24T07:35:05;8.48;;;4.93;;
12112;SDS011;6120;52.250;8.478;2023-01-24T07:37:32;9.77;;;4.85;;
12112;SDS011;6120;52.250;8.478;2023-01-24T07:39:59;9.63;;;5.55;;
12112;SDS011;6120;52.250;8.478;2023-01-24T07:42:25;10.30;;;5.55;;
12112;SDS011;6120;52.250;8.478;2023-01-24T07:44:53;8.80;;;5.20;;
12112;SDS011;6120;52.250;8.478;2023-01-24T07:47:20;10.30;;;5.10;;
12112;SDS011;6120;52.250;8.478;2023-01-24T07:49:46;9.13;;;5.30;;
12112;SDS011;6120;52.250;8.478;2023-01-24T07:52:13;10.10;;;5.45;;
12112;SDS011;6120;52.250;8.478;2023-01-24T07:54:40;8.10;;;5.47;;
12112;SDS011;6120;52.250;8.478;2023-01-24T07:57:06;10.23;;;5.43;;
12112;SDS011;6120;52.250;8.478;2023-01-24T07:59:34;8.73;;;5.37;;
12112;SDS011;6120;52.250;8.478;2023-01-24T08:02:04;10.23;;;5.22;;
12112;SDS011;6120;52.250;8.478;2023-01-24T08:04:31;9.95;;;5.03;;
12112;SDS011;6120;52.250;8.478;2023-01-24T08:07:00;8.45;;;4.40;;
12112;SDS011;6120;52.250;8.478;2023-01-24T08:09:46;10.55;;;5.38;;
12112;SDS011;6120;52.250;8.478;2023-01-24T08:12:17;10.38;;;5.38;;
12112;SDS011;6120;52.250;8.478;2023-01-24T08:14:44;10.52;;;5.50;;
12112;SDS011;6120;52.250;8.478;2023-01-24T08:17:10;9.75;;;5.57;;
12112;SDS011;6120;52.250;8.478;2023-01-24T08:19:37;8.30;;;4.93;;
12112;SDS011;6120;52.250;8.478;2023-01-24T08:22:25;10.27;;;5.03;;
12112;SDS011;6120;52.250;8.478;2023-01-24T08:24:52;8.70;;;6.00;;
12112;SDS011;6120;52.250;8.478;2023-01-24T08:27:19;9.80;;;5.70;;
12112;SDS011;6120;52.250;8.478;2023-01-24T08:29:46;8.27;;;5.07;;
12112;SDS011;6120;52.250;8.478;2023-01-24T08:32:12;7.22;;;4.20;;
12112;SDS011;6120;52.250;8.478;2023-01-24T08:34:39;7.78;;;4.32;;
12112;SDS011;6120;52.250;8.478;2023-01-24T08:37:05;6.35;;;3.80;;
12112;SDS011;6120;52.250;8.478;2023-01-24T08:39:32;7.00;;;4.18;;
12112;SDS011;6120;52.250;8.478;2023-01-24T08:41:58;6.85;;;4.05;;
12112;SDS011;6120;52.250;8.478;2023-01-24T08:44:25;7.93;;;4.70;;
12112;SDS011;6120;52.250;8.478;2023-01-24T08:46:52;6.28;;;4.20;;
12112;SDS011;6120;52.250;8.478;2023-01-24T08:49:18;9.15;;;4.97;;
12112;SDS011;6120;52.250;8.478;2023-01-24T08:51:45;9.07;;;5.68;;
12112;SDS011;6120;52.250;8.478;2023-01-24T08:54:14;11.73;;;6.22;;
12112;SDS011;6120;52.250;8.478;2023-01-24T08:56:41;14.90;;;8.57;;
12112;SDS011;6120;52.250;8.478;2023-01-24T08:59:07;12.38;;;9.18;;
12112;SDS011;6120;52.250;8.478;2023-01-24T09:01:34;9.82;;;6.20;;
12112;SDS011;6120;52.250;8.478;2023-01-24T09:04:01;10.93;;;6.35;;
12112;SDS011;6120;52.250;8.478;2023-01-24T09:06:28;7.50;;;5.40;;
12112;SDS011;6120;52.250;8.478;2023-01-24T09:08:55;7.55;;;6.10;;
12112;SDS011;6120;52.250;8.478;2023-01-24T09:11:22;7.60;;;5.10;;
12112;SDS011;6120;52.250;8.478;2023-01-24T09:13:49;6.65;;;4.45;;
12112;SDS011;6120;52.250;8.478;2023-01-24T09:16:15;9.10;;;4.82;;
12112;SDS011;6120;52.250;8.478;2023-01-24T09:18:43;7.65;;;4.88;;
12112;SDS011;6120;52.250;8.478;2023-01-24T09:21:09;7.90;;;4.40;;
12112;SDS011;6120;52.250;8.478;2023-01-24T09:23:36;8.40;;;6.53;;
12112;SDS011;6120;52.250;8.478;2023-01-24T09:26:03;7.18;;;4.72;;
12112;SDS011;6120;52.250;8.478;2023-01-24T09:28:30;6.13;;;4.35;;
12112;SDS011;6120;52.250;8.478;2023-01-24T09:30:57;6.30;;;4.20;;
12112;SDS011;6120;52.250;8.478;2023-01-24T09:33:23;7.20;;;4.50;;
12112;SDS011;6120;52.250;8.478;2023-01-24T09:35:57;7.15;;;3.97;;
12112;SDS011;6120;52.250;8.478;2023-01-24T09:38:26;5.80;;;3.60;;
12112;SDS011;6120;52.250;8.478;2023-01-24T09:43:43;7.15;;;3.72;;
12112;SDS011;6120;52.250;8.478;2023-01-24T09:48:42;7.10;;;4.03;;
12112;SDS011;6120;52.250;8.478;2023-01-24T09:51:13;5.63;;;3.63;;
12112;SDS011;6120;52.250;8.478;2023-01-24T09:53:44;6.45;;;4.13;;
12112;SDS011;6120;52.250;8.478;2023-01-24T09:56:20;9.32;;;4.18;;
12112;SDS011;6120;52.250;8.478;2023-01-24T10:01:57;6.15;;;3.50;;
12112;SDS011;6120;52.250;8.478;2023-01-24T10:04:31;6.15;;;3.78;;
12112;SDS011;6120;52.250;8.478;2023-01-24T10:10:03;9.10;;;4.05;;
12112;SDS011;6120;52.250;8.478;2023-01-24T10:12:42;5.88;;;4.00;;
12112;SDS011;6120;52.250;8.478;2023-01-24T10:28:21;10.57;;;6.20;;
12112;SDS011;6120;52.250;8.478;2023-01-24T10:30:56;9.27;;;5.57;;
12112;SDS011;6120;52.250;8.478;2023-01-24T10:33:34;11.90;;;7.63;;
12112;SDS011;6120;52.250;8.478;2023-01-24T10:36:05;7.07;;;4.70;;
12112;SDS011;6120;52.250;8.478;2023-01-24T10:38:32;11.00;;;7.28;;
12112;SDS011;6120;52.250;8.478;2023-01-24T10:41:09;8.70;;;5.53;;
12112;SDS011;6120;52.250;8.478;2023-01-24T10:43:48;7.85;;;4.97;;
12112;SDS011;6120;52.250;8.478;2023-01-24T10:48:50;7.97;;;4.85;;
12112;SDS011;6120;52.250;8.478;2023-01-24T10:51:20;11.10;;;6.70;;
12112;SDS011;6120;52.250;8.478;2023-01-24T10:53:48;15.52;;;10.85;;
12112;SDS011;6120;52.250;8.478;2023-01-24T10:56:19;8.45;;;6.18;;
12112;SDS011;6120;52.250;8.478;2023-01-24T11:01:38;8.13;;;5.07;;
12112;SDS011;6120;52.250;8.478;2023-01-24T11:04:24;7.30;;;4.28;;
12112;SDS011;6120;52.250;8.478;2023-01-24T11:06:52;6.20;;;4.55;;
12112;SDS011;6120;52.250;8.478;2023-01-24T11:09:20;7.82;;;5.70;;
12112;SDS011;6120;52.250;8.478;2023-01-24T11:11:51;9.90;;;5.40;;
12112;SDS011;6120;52.250;8.478;2023-01-24T11:14:23;7.25;;;5.00;;
12112;SDS011;6120;52.250;8.478;2023-01-24T11:16:53;8.48;;;5.30;;
12112;SDS011;6120;52.250;8.478;2023-01-24T11:21:56;9.20;;;5.95;;
12112;SDS011;6120;52.250;8.478;2023-01-24T11:24:25;7.63;;;5.75;;
12112;SDS011;6120;52.250;8.478;2023-01-24T11:26:53;8.48;;;5.43;;
12112;SDS011;6120;52.250;8.478;2023-01-24T11:29:20;8.07;;;5.45;;
12112;SDS011;6120;52.250;8.478;2023-01-24T11:31:48;9.50;;;5.95;;
12112;SDS011;6120;52.250;8.478;2023-01-24T11:51:25;10.85;;;6.43;;
12112;SDS011;6120;52.250;8.478;2023-01-24T11:54:17;6.25;;;4.45;;
12112;SDS011;6120;52.250;8.478;2023-01-24T12:10:02;20.23;;;10.35;;
12112;SDS011;6120;52.250;8.478;2023-01-24T12:12:49;15.65;;;9.05;;
12112;SDS011;6120;52.250;8.478;2023-01-24T12:21:17;8.13;;;4.95;;
12112;SDS011;6120;52.250;8.478;2023-01-24T12:24:03;11.38;;;6.50;;
12112;SDS011;6120;52.250;8.478;2023-01-24T12:26:43;6.97;;;3.90;;
12112;SDS011;6120;52.250;8.478;2023-01-24T12:29:15;7.07;;;4.25;;
12112;SDS011;6120;52.250;8.478;2023-01-24T12:31:58;5.22;;;3.83;;
12112;SDS011;6120;52.250;8.478;2023-01-24T12:37:11;8.32;;;5.32;;
12112;SDS011;6120;52.250;8.478;2023-01-24T12:39:42;6.43;;;4.47;;
12112;SDS011;6120;52.250;8.478;2023-01-24T12:42:17;9.23;;;6.88;;
12112;SDS011;6120;52.250;8.478;2023-01-24T12:44:52;7.57;;;4.38;;
12112;SDS011;6120;52.250;8.478;2023-01-24T12:47:57;6.55;;;4.25;;
12112;SDS011;6120;52.250;8.478;2023-01-24T12:50:53;8.27;;;5.88;;
12112;SDS011;6120;52.250;8.478;2023-01-24T12:53:29;7.68;;;4.20;;
12112;SDS011;6120;52.250;8.478;2023-01-24T12:56:05;6.60;;;4.22;;
12112;SDS011;6120;52.250;8.478;2023-01-24T12:58:40;6.07;;;4.55;;
12112;SDS011;6120;52.250;8.478;2023-01-24T13:11:54;6.90;;;4.15;;
12112;SDS011;6120;52.250;8.478;2023-01-24T13:17:09;6.50;;;4.72;;
12112;SDS011;6120;52.250;8.478;2023-01-24T13:20:07;7.45;;;5.22;;
12112;SDS011;6120;52.250;8.478;2023-01-24T13:33:20;7.10;;;3.80;;
12112;SDS011;6120;52.250;8.478;2023-01-24T13:36:03;5.85;;;3.70;;
12112;SDS011;6120;52.250;8.478;2023-01-24T13:38:34;6.47;;;3.75;;
12112;SDS011;6120;52.250;8.478;2023-01-24T13:41:07;8.27;;;4.15;;
12112;SDS011;6120;52.250;8.478;2023-01-24T13:46:13;5.18;;;3.60;;
12112;SDS011;6120;52.250;8.478;2023-01-24T13:53:59;6.68;;;4.10;;
12112;SDS011;6120;52.250;8.478;2023-01-24T13:56:27;7.57;;;4.13;;
12112;SDS011;6120;52.250;8.478;2023-01-24T13:58:54;9.13;;;3.95;;
12112;SDS011;6120;52.250;8.478;2023-01-24T14:01:22;6.68;;;3.90;;
12112;SDS011;6120;52.250;8.478;2023-01-24T14:03:59;5.78;;;3.65;;
12112;SDS011;6120;52.250;8.478;2023-01-24T14:06:27;6.30;;;4.18;;
12112;SDS011;6120;52.250;8.478;2023-01-24T14:12:04;6.43;;;3.78;;
12112;SDS011;6120;52.250;8.478;2023-01-24T14:14:35;6.28;;;3.47;;
12112;SDS011;6120;52.250;8.478;2023-01-24T14:17:04;4.82;;;3.17;;
12112;SDS011;6120;52.250;8.478;2023-01-24T14:19:50;6.60;;;4.28;;
12112;SDS011;6120;52.250;8.478;2023-01-24T14:22:19;6.30;;;4.28;;
12112;SDS011;6120;52.250;8.478;2023-01-24T14:24:58;6.00;;;3.63;;
12112;SDS011;6120;52.250;8.478;2023-01-24T14:27:36;9.10;;;5.50;;
12112;SDS011;6120;52.250;8.478;2023-01-24T14:32:43;30.10;;;12.60;;
12112;SDS011;6120;52.250;8.478;2023-01-24T14:37:46;6.90;;;4.03;;
12112;SDS011;6120;52.250;8.478;2023-01-24T14:40:24;8.43;;;4.68;;
12112;SDS011;6120;52.250;8.478;2023-01-24T14:42:59;7.78;;;4.63;;
12112;SDS011;6120;52.250;8.478;2023-01-24T14:45:28;10.88;;;6.15;;
12112;SDS011;6120;52.250;8.478;2023-01-24T14:47:56;7.45;;;4.65;;
12112;SDS011;6120;52.250;8.478;2023-01-24T14:52:55;6.50;;;4.65;;
12112;SDS011;6120;52.250;8.478;2023-01-24T14:58:18;10.38;;;7.07;;
12112;SDS011;6120;52.250;8.478;2023-01-24T15:00:50;7.35;;;4.97;;
12112;SDS011;6120;52.250;8.478;2023-01-24T15:03:22;6.57;;;4.22;;
12112;SDS011;6120;52.250;8.478;2023-01-24T15:05:55;7.32;;;4.60;;
12112;SDS011;6120;52.250;8.478;2023-01-24T15:08:26;7.30;;;4.75;;
12112;SDS011;6120;52.250;8.478;2023-01-24T15:11:03;8.10;;;4.25;;
12112;SDS011;6120;52.250;8.478;2023-01-24T15:13:33;7.55;;;5.00;;
12112;SDS011;6120;52.250;8.478;2023-01-24T15:16:14;8.25;;;5.07;;
12112;SDS011;6120;52.250;8.478;2023-01-24T15:18:52;7.35;;;4.95;;
12112;SDS011;6120;52.250;8.478;2023-01-24T15:21:30;7.95;;;5.45;;
12112;SDS011;6120;52.250;8.478;2023-01-24T15:24:13;11.25;;;6.25;;
12112;SDS011;6120;52.250;8.478;2023-01-24T15:26:45;9.38;;;5.97;;
12112;SDS011;6120;52.250;8.478;2023-01-24T15:32:50;7.18;;;4.70;;
12112;SDS011;6120;52.250;8.478;2023-01-24T15:40:45;8.52;;;5.72;;
12112;SDS011;6120;52.250;8.478;2023-01-24T15:46:06;8.85;;;5.57;;
12112;SDS011;6120;52.250;8.478;2023-01-24T15:48:59;7.13;;;4.82;;
12112;SDS011;6120;52.250;8.478;2023-01-24T15:51:29;8.68;;;5.95;;
12112;SDS011;6120;52.250;8.478;2023-01-24T15:54:06;8.88;;;5.22;;
12112;SDS011;6120;52.250;8.478;2023-01-24T15:56:35;8.85;;;5.45;;
12112;SDS011;6120;52.250;8.478;2023-01-24T15:59:17;9.15;;;5.88;;
12112;SDS011;6120;52.250;8.478;2023-01-24T16:01:44;8.98;;;6.00;;
12112;SDS011;6120;52.250;8.478;2023-01-24T16:04:12;11.13;;;5.95;;
12112;SDS011;6120;52.250;8.478;2023-01-24T16:06:42;11.73;;;7.80;;
12112;SDS011;6120;52.250;8.478;2023-01-24T16:09:09;10.10;;;6.47;;
12112;SDS011;6120;52.250;8.478;2023-01-24T16:11:36;9.60;;;5.88;;
12112;SDS011;6120;52.250;8.478;2023-01-24T16:14:04;9.20;;;6.30;;
12112;SDS011;6120;52.250;8.478;2023-01-24T16:16:32;9.65;;;6.45;;
12112;SDS011;6120;52.250;8.478;2023-01-24T16:19:00;10.15;;;6.25;;
12112;SDS011;6120;52.250;8.478;2023-01-24T16:21:26;10.20;;;6.40;;
12112;SDS011;6120;52.250;8.478;2023-01-24T16:23:53;11.13;;;7.03;;
12112;SDS011;6120;52.250;8.478;2023-01-24T16:26:23;12.38;;;7.28;;
12112;SDS011;6120;52.250;8.478;2023-01-24T16:28:51;11.57;;;6.85;;
12112;SDS011;6120;52.250;8.478;2023-01-24T16:31:18;12.65;;;7.18;;
12112;SDS011;6120;52.250;8.478;2023-01-24T16:33:44;14.90;;;9.50;;
12112;SDS011;6120;52.250;8.478;2023-01-24T16:36:12;11.73;;;7.88;;
12112;SDS011;6120;52.250;8.478;2023-01-24T16:38:41;14.23;;;8.57;;
12112;SDS011;6120;52.250;8.478;2023-01-24T16:41:08;17.15;;;10.25;;
12112;SDS011;6120;52.250;8.478;2023-01-24T16:43:34;14.50;;;9.05;;
12112;SDS011;6120;52.250;8.478;2023-01-24T16:46:01;16.90;;;9.77;;
12112;SDS011;6120;52.250;8.478;2023-01-24T16:48:29;15.57;;;8.88;;
12112;SDS011;6120;52.250;8.478;2023-01-24T16:50:57;17.75;;;9.82;;
12112;SDS011;6120;52.250;8.478;2023-01-24T16:53:24;16.75;;;9.88;;
12112;SDS011;6120;52.250;8.478;2023-01-24T16:55:54;16.92;;;10.45;;
12112;SDS011;6120;52.250;8.478;2023-01-24T16:58:22;16.50;;;9.52;;
12112;SDS011;6120;52.250;8.478;2023-01-24T17:00:49;20.25;;;9.98;;
12112;SDS011;6120;52.250;8.478;2023-01-24T17:03:15;15.15;;;9.07;;
12112;SDS011;6120;52.250;8.478;2023-01-24T17:05:42;17.35;;;9.13;;
12112;SDS011;6120;52.250;8.478;2023-01-24T17:08:10;17.25;;;8.77;;
12112;SDS011;6120;52.250;8.478;2023-01-24T17:13:05;17.95;;;9.85;;
12112;SDS011;6120;52.250;8.478;2023-01-24T17:15:36;19.83;;;10.50;;
12112;SDS011;6120;52.250;8.478;2023-01-24T17:18:03;14.23;;;8.38;;
12112;SDS011;6120;52.250;8.478;2023-01-24T17:20:31;16.85;;;8.65;;
12112;SDS011;6120;52.250;8.478;2023-01-24T17:22:58;17.17;;;8.77;;
12112;SDS011;6120;52.250;8.478;2023-01-24T17:25:28;18.33;;;8.70;;
12112;SDS011;6120;52.250;8.478;2023-01-24T17:27:56;21.00;;;10.23;;
12112;SDS011;6120;52.250;8.478;2023-01-24T17:30:23;16.33;;;8.70;;
12112;SDS011;6120;52.250;8.478;2023-01-24T17:32:50;17.30;;;9.38;;
12112;SDS011;6120;52.250;8.478;2023-01-24T17:35:16;17.58;;;10.18;;
12112;SDS011;6120;52.250;8.478;2023-01-24T17:37:43;17.10;;;10.25;;
12112;SDS011;6120;52.250;8.478;2023-01-24T17:40:09;17.83;;;9.52;;
12112;SDS011;6120;52.250;8.478;2023-01-24T17:42:37;20.20;;;10.43;;